Main page
METAR-TAF:

METAR-TAF

Airports :

Al Qaisumah/Hafr Al Batin Airport

Qaisumah, Saudi Arabia

latitude: 28-19N, longitude: 046-07E, elevation: 358 m

Current weather observation

The report was made 1 hour and 1 minutes ago, at 03:00 UTC
Wind 3 kt from the South/Southeast
Temperature 14°C
Humidity 38%
Pressure 1019 hPa
Visibility 10 km or more
no clouds below 1500 m and no cumulonimbus

METAR: OEPA 090300Z 15003KT CAVOK 14/00 Q1019 NOSIG

Time: 07:01 (04:01 UTC)

Forecast

The report was made 6 hours and 1 minutes ago, at 22:00 UTC
Forecast valid from 09 at 00 UTC to 10 at 06 UTC
Wind 10 kt from the South/Southeast
Visibility 10 km or more
no clouds below 1500 m and no cumulonimbus
Becoming
from 09 at 04 UTC to 09 at 06 UTC
Wind 15 kt from the North
Visibility: 6000 m

TAF: OEPA 082200Z 0900/1006 15010KT CAVOK BECMG 0904/0906 36015KT 6000 NSC

Weather observations and forecasts of more than 4000 airports (METAR and TAF reports).

The available stations are represented by yellow and red dots on the map.

Hover mouse over dot to see the name of the station.

Then click to see weather observations and forecasts.

To change the map : click on the green buttons with a black cross to zoom in, on the green button with a dash to zoom out, or on the green arrows for adjacent maps.


METAR-TAF: